createdAt,value
2022-11-08T00:02:05.482Z,62.90
2022-11-08T00:04:32.315Z,62.80
2022-11-08T00:07:17.546Z,62.80
2022-11-08T00:10:03.003Z,62.80
2022-11-08T00:12:48.338Z,62.80
2022-11-08T00:15:15.058Z,62.80
2022-11-08T00:17:41.826Z,62.80
2022-11-08T00:20:09.225Z,62.70
2022-11-08T00:22:35.976Z,62.80
2022-11-08T00:25:02.807Z,62.70
2022-11-08T00:27:29.539Z,62.70
2022-11-08T00:29:56.342Z,62.60
2022-11-08T00:32:25.086Z,62.70
2022-11-08T00:34:52.806Z,62.60
2022-11-08T00:37:20.663Z,62.60
2022-11-08T00:39:50.291Z,62.70
2022-11-08T00:42:17.113Z,62.70
2022-11-08T00:44:43.928Z,62.60
2022-11-08T00:47:10.692Z,62.60
2022-11-08T00:49:37.441Z,62.50
2022-11-08T00:52:04.711Z,62.60
2022-11-08T00:54:31.574Z,62.60
2022-11-08T00:56:58.399Z,62.60
2022-11-08T00:59:25.198Z,62.50
2022-11-08T01:01:54.597Z,62.60
2022-11-08T01:04:21.634Z,62.50
2022-11-08T01:06:48.818Z,62.50
2022-11-08T01:09:15.609Z,62.50
2022-11-08T01:11:46.338Z,62.50
2022-11-08T01:14:14.680Z,62.40
2022-11-08T01:16:42.336Z,62.40
2022-11-08T01:19:09.568Z,62.40
2022-11-08T01:21:36.906Z,62.40
2022-11-08T01:24:03.808Z,62.40
2022-11-08T01:26:30.681Z,62.30
2022-11-08T01:28:58.342Z,62.30
2022-11-08T01:31:28.000Z,62.30
2022-11-08T01:33:55.429Z,62.40
2022-11-08T01:36:25.893Z,62.40
2022-11-08T01:38:53.705Z,62.30
2022-11-08T01:41:22.523Z,62.30
2022-11-08T01:43:57.801Z,62.40
2022-11-08T01:46:40.145Z,62.40
2022-11-08T01:49:09.596Z,62.40
2022-11-08T01:51:51.033Z,62.40
2022-11-08T01:54:22.865Z,62.40
2022-11-08T01:56:50.185Z,62.40
2022-11-08T01:59:18.507Z,62.30
2022-11-08T02:01:45.526Z,62.30
2022-11-08T02:04:14.502Z,62.30
2022-11-08T02:06:42.221Z,62.40
2022-11-08T02:09:10.991Z,62.40
2022-11-08T02:11:39.460Z,62.40
2022-11-08T02:14:07.030Z,62.40
2022-11-08T02:16:33.768Z,62.40
2022-11-08T02:19:00.559Z,62.40
2022-11-08T02:21:49.648Z,62.40
2022-11-08T02:24:17.332Z,62.40
2022-11-08T02:26:45.604Z,62.40
2022-11-08T02:29:29.477Z,62.40
2022-11-08T02:31:57.164Z,62.40
2022-11-08T02:34:31.208Z,62.40
2022-11-08T02:36:59.354Z,62.40
2022-11-08T02:39:26.092Z,62.40
2022-11-08T02:41:52.966Z,62.40
2022-11-08T02:44:19.849Z,62.40
2022-11-08T02:46:46.655Z,62.50
2022-11-08T02:49:13.571Z,62.40
2022-11-08T02:51:40.357Z,62.40
2022-11-08T02:54:07.132Z,62.40
2022-11-08T02:56:33.849Z,62.50
2022-11-08T02:59:00.565Z,62.40
2022-11-08T03:01:27.460Z,62.40
2022-11-08T03:03:54.301Z,62.40
2022-11-08T03:06:21.051Z,62.40
2022-11-08T03:08:47.797Z,62.40
2022-11-08T03:11:14.487Z,62.40
2022-11-08T03:13:41.429Z,62.40
2022-11-08T03:16:08.465Z,62.40
2022-11-08T03:18:35.315Z,62.40
2022-11-08T03:21:02.052Z,62.40
2022-11-08T03:23:29.155Z,62.40
2022-11-08T03:25:55.955Z,62.40
2022-11-08T03:28:23.454Z,62.40
2022-11-08T03:30:53.812Z,62.40
2022-11-08T03:33:20.979Z,62.40
2022-11-08T03:35:51.466Z,62.40
2022-11-08T03:38:18.826Z,62.40
2022-11-08T03:40:46.222Z,62.30
2022-11-08T03:43:13.206Z,62.30
2022-11-08T03:45:39.960Z,62.30
2022-11-08T03:48:07.170Z,62.30
2022-11-08T03:50:34.021Z,62.30
2022-11-08T03:53:00.777Z,62.40
2022-11-08T03:55:28.696Z,62.40
2022-11-08T03:57:55.794Z,62.40
2022-11-08T04:00:26.597Z,62.30
2022-11-08T04:02:55.056Z,62.40
2022-11-08T04:05:22.053Z,62.30
2022-11-08T04:07:48.990Z,62.30
2022-11-08T04:10:17.821Z,62.30
2022-11-08T04:13:03.607Z,62.30
2022-11-08T04:15:31.486Z,62.90
2022-11-08T04:18:17.407Z,62.30
2022-11-08T04:21:05.644Z,62.30
2022-11-08T04:23:34.151Z,62.30
2022-11-08T04:26:03.227Z,62.30
2022-11-08T04:28:32.411Z,62.30
2022-11-08T04:31:05.081Z,62.20
2022-11-08T04:33:33.268Z,62.40
2022-11-08T04:36:06.775Z,62.30
2022-11-08T04:38:33.729Z,62.30
2022-11-08T04:41:02.716Z,62.30
2022-11-08T04:43:30.860Z,62.30
2022-11-08T04:46:03.199Z,62.30
2022-11-08T04:48:31.867Z,62.20
2022-11-08T04:51:07.117Z,62.20
2022-11-08T04:53:34.592Z,62.20
2022-11-08T04:56:06.894Z,62.20
2022-11-08T04:58:38.997Z,62.20
2022-11-08T05:01:07.674Z,62.20
2022-11-08T05:03:35.120Z,62.20
2022-11-08T05:06:07.154Z,62.30
2022-11-08T05:08:36.731Z,62.20
2022-11-08T05:11:05.049Z,62.30
2022-11-08T05:13:32.081Z,62.20
2022-11-08T05:16:03.332Z,62.20
2022-11-08T05:18:31.603Z,62.20
2022-11-08T05:21:18.300Z,62.30
2022-11-08T05:23:46.408Z,62.20
2022-11-08T05:26:13.598Z,62.30
2022-11-08T05:28:43.239Z,62.20
2022-11-08T05:31:12.782Z,62.30
2022-11-08T05:33:40.037Z,62.30
2022-11-08T05:36:10.358Z,62.30
2022-11-08T05:38:38.112Z,62.20
2022-11-08T05:41:20.020Z,62.20
2022-11-08T05:43:49.283Z,62.20
2022-11-08T05:46:17.421Z,62.30
2022-11-08T05:48:45.286Z,62.20
2022-11-08T05:51:12.965Z,62.20
2022-11-08T05:53:40.338Z,62.80
2022-11-08T05:56:07.773Z,62.20
2022-11-08T05:58:36.016Z,62.20
2022-11-08T06:01:07.672Z,62.10
2022-11-08T06:03:35.267Z,62.10
2022-11-08T06:06:07.865Z,62.20
2022-11-08T06:08:35.042Z,62.20
2022-11-08T06:11:06.385Z,62.20
2022-11-08T06:13:34.374Z,62.20
2022-11-08T06:16:02.130Z,62.10
2022-11-08T06:18:30.023Z,62.20
2022-11-08T06:20:58.859Z,62.20
2022-11-08T06:23:25.646Z,62.20
2022-11-08T06:25:52.367Z,62.10
2022-11-08T06:28:19.193Z,62.10
2022-11-08T06:30:46.486Z,62.10
2022-11-08T06:33:13.504Z,62.10
2022-11-08T06:35:40.282Z,62.10
2022-11-08T06:38:09.536Z,62.10
2022-11-08T06:40:38.113Z,62.10
2022-11-08T06:43:05.124Z,62.10
2022-11-08T06:45:33.061Z,62.10
2022-11-08T06:48:02.038Z,62.10
2022-11-08T06:50:30.518Z,62.20
2022-11-08T06:53:02.055Z,62.70
2022-11-08T06:55:29.669Z,62.10
2022-11-08T06:57:57.036Z,62.10
2022-11-08T07:00:27.257Z,62.10
2022-11-08T07:02:58.659Z,62.10
2022-11-08T07:05:35.425Z,62.10
2022-11-08T07:08:03.868Z,62.10
2022-11-08T07:10:32.350Z,62.10
2022-11-08T07:13:00.242Z,62.10
2022-11-08T07:15:29.615Z,62.10
2022-11-08T07:18:09.524Z,62.10
2022-11-08T07:20:38.170Z,62.00
2022-11-08T07:23:05.571Z,62.10
2022-11-08T07:25:33.225Z,62.10
2022-11-08T07:28:02.354Z,59.60
2022-11-08T07:30:30.196Z,58.90
2022-11-08T07:32:57.723Z,58.70
2022-11-08T07:35:26.080Z,57.10
2022-11-08T07:37:53.154Z,55.50
2022-11-08T07:40:23.073Z,56.50
2022-11-08T07:43:10.570Z,59.30
2022-11-08T07:45:37.096Z,60.60
2022-11-08T07:48:11.059Z,61.10
2022-11-08T07:50:39.703Z,61.20
2022-11-08T07:53:06.462Z,61.10
2022-11-08T07:55:36.463Z,61.10
2022-11-08T07:58:05.982Z,61.10
2022-11-08T08:00:36.492Z,61.00
2022-11-08T08:03:05.300Z,61.20
2022-11-08T08:05:36.341Z,61.10
2022-11-08T08:08:03.869Z,61.20
2022-11-08T08:10:31.716Z,60.70
2022-11-08T08:12:58.740Z,58.40
2022-11-08T08:15:26.160Z,58.60
2022-11-08T08:17:53.395Z,58.90
2022-11-08T08:20:20.545Z,58.40
2022-11-08T08:22:48.903Z,58.70
2022-11-08T08:25:16.629Z,58.90
2022-11-08T08:27:50.929Z,58.50
2022-11-08T08:30:19.203Z,58.50
2022-11-08T08:32:53.430Z,58.60
2022-11-08T08:35:24.662Z,58.30
2022-11-08T08:37:51.387Z,59.00
2022-11-08T08:40:18.316Z,59.90
2022-11-08T08:42:47.556Z,60.70
2022-11-08T08:45:15.221Z,61.30
2022-11-08T08:47:42.296Z,60.60
2022-11-08T08:50:09.742Z,60.60
2022-11-08T08:52:36.474Z,60.60
2022-11-08T08:55:03.258Z,60.60
2022-11-08T08:57:30.024Z,60.50
2022-11-08T09:02:44.331Z,60.70
2022-11-08T09:05:13.072Z,60.70
2022-11-08T09:07:40.971Z,60.70
2022-11-08T09:10:09.485Z,59.50
2022-11-08T09:12:36.873Z,60.80
2022-11-08T09:15:05.156Z,60.70
2022-11-08T09:17:31.985Z,60.70
2022-11-08T09:19:58.741Z,60.80
2022-11-08T09:22:25.445Z,60.80
2022-11-08T09:24:52.167Z,60.90
2022-11-08T09:27:18.925Z,60.90
2022-11-08T09:29:45.591Z,60.90
2022-11-08T09:32:12.517Z,61.00
2022-11-08T09:34:39.211Z,61.00
2022-11-08T09:37:05.983Z,61.00
2022-11-08T09:39:32.769Z,61.00
2022-11-08T09:42:30.606Z,61.10
2022-11-08T09:45:36.400Z,61.10
2022-11-08T09:48:07.591Z,61.20
2022-11-08T09:50:38.382Z,61.30
2022-11-08T09:53:36.443Z,61.30
2022-11-08T09:56:11.785Z,61.30
2022-11-08T09:58:51.118Z,61.30
2022-11-08T10:01:21.095Z,61.30
2022-11-08T10:03:54.939Z,61.40
2022-11-08T10:06:32.780Z,61.40
2022-11-08T10:09:05.233Z,61.60
2022-11-08T10:11:54.568Z,61.60
2022-11-08T10:14:54.158Z,61.60
2022-11-08T10:17:56.557Z,61.60
2022-11-08T10:20:54.012Z,61.70
2022-11-08T10:23:24.927Z,61.80
2022-11-08T10:25:59.671Z,61.80
2022-11-08T10:28:36.772Z,61.80
2022-11-08T10:31:04.188Z,61.80
2022-11-08T10:33:45.858Z,61.90
2022-11-08T10:36:26.694Z,61.90
2022-11-08T10:39:08.970Z,61.90
2022-11-08T10:41:39.970Z,61.90
2022-11-08T10:44:26.710Z,61.90
2022-11-08T10:46:56.170Z,61.90
2022-11-08T10:49:33.227Z,61.90
2022-11-08T10:52:16.287Z,61.90
2022-11-08T10:54:45.757Z,61.90
2022-11-08T10:57:37.750Z,61.90
2022-11-08T11:00:23.386Z,61.90
2022-11-08T11:03:02.031Z,61.90
2022-11-08T11:05:33.410Z,61.90
2022-11-08T11:08:07.915Z,60.70
2022-11-08T11:10:51.981Z,59.80
2022-11-08T11:13:18.727Z,60.00
2022-11-08T11:15:48.346Z,60.10
2022-11-08T11:18:50.549Z,59.90
2022-11-08T11:21:19.640Z,60.10
2022-11-08T11:23:47.872Z,59.70
2022-11-08T11:27:01.719Z,59.60
2022-11-08T11:29:36.531Z,59.60
2022-11-08T11:32:32.721Z,59.50
2022-11-08T11:35:02.201Z,60.00
2022-11-08T11:37:41.972Z,59.60
2022-11-08T11:40:15.960Z,59.50
2022-11-08T11:42:50.927Z,59.70
2022-11-08T11:45:44.495Z,59.80
2022-11-08T11:48:24.407Z,59.40
2022-11-08T11:50:51.294Z,59.90
2022-11-08T11:53:32.949Z,59.60
2022-11-08T11:56:25.784Z,59.60
2022-11-08T11:59:04.243Z,59.80
2022-11-08T12:01:36.833Z,59.50
2022-11-08T12:04:40.232Z,59.60
2022-11-08T12:07:16.342Z,59.90
2022-11-08T12:10:04.440Z,59.80
2022-11-08T12:12:31.102Z,59.50
2022-11-08T12:15:04.580Z,59.50
2022-11-08T12:17:40.190Z,59.60
2022-11-08T12:20:26.598Z,59.70
2022-11-08T12:23:29.509Z,59.50
2022-11-08T12:25:56.199Z,59.60
2022-11-08T12:29:03.210Z,60.00
2022-11-08T12:31:48.080Z,59.70
2022-11-08T12:34:20.172Z,59.90
2022-11-08T12:36:58.509Z,59.80
2022-11-08T12:39:45.794Z,59.90
2022-11-08T12:42:57.345Z,60.00
2022-11-08T12:45:39.504Z,60.00
2022-11-08T12:48:14.093Z,60.10
2022-11-08T12:51:14.735Z,59.80
2022-11-08T12:54:08.999Z,60.20
2022-11-08T12:56:43.607Z,60.10
2022-11-08T12:59:19.675Z,60.70
2022-11-08T13:01:46.989Z,59.90
2022-11-08T13:04:38.740Z,60.30
2022-11-08T13:07:17.233Z,60.60
2022-11-08T13:10:02.405Z,60.50
2022-11-08T13:12:38.975Z,60.60
2022-11-08T13:15:16.801Z,60.50
2022-11-08T13:18:06.438Z,60.70
2022-11-08T13:20:41.040Z,60.10
2022-11-08T13:23:33.041Z,60.10
2022-11-08T13:26:26.109Z,60.50
2022-11-08T13:28:53.888Z,60.70
2022-11-08T13:31:26.786Z,62.00
2022-11-08T13:34:12.355Z,62.30
2022-11-08T13:37:07.123Z,62.20
2022-11-08T13:39:39.703Z,62.00
2022-11-08T13:42:15.475Z,61.90
2022-11-08T13:45:11.092Z,61.80
2022-11-08T13:47:38.502Z,61.70
2022-11-08T13:50:31.421Z,61.60
2022-11-08T13:53:23.743Z,61.60
2022-11-08T13:55:50.588Z,61.60
2022-11-08T13:58:39.693Z,61.70
2022-11-08T14:01:09.212Z,61.60
2022-11-08T14:03:38.601Z,61.60
2022-11-08T14:06:05.335Z,61.60
2022-11-08T14:08:54.652Z,61.60
2022-11-08T14:11:36.977Z,61.60
2022-11-08T14:14:18.228Z,61.60
2022-11-08T14:17:05.995Z,61.70
2022-11-08T14:19:35.015Z,61.70
2022-11-08T14:22:02.409Z,61.70
2022-11-08T14:24:36.531Z,61.70
2022-11-08T14:27:04.183Z,61.70
2022-11-08T14:29:31.028Z,61.70
2022-11-08T14:32:03.978Z,61.70
2022-11-08T14:34:36.831Z,61.90
2022-11-08T14:37:05.386Z,61.90
2022-11-08T14:39:35.528Z,61.90
2022-11-08T14:42:05.411Z,61.90
2022-11-08T14:44:32.198Z,61.90
2022-11-08T14:46:59.608Z,62.00
2022-11-08T14:49:37.959Z,62.10
2022-11-08T14:52:15.400Z,62.10
2022-11-08T14:54:44.960Z,62.20
2022-11-08T14:57:48.622Z,62.10
2022-11-08T15:00:24.283Z,62.10
2022-11-08T15:02:59.726Z,62.10
2022-11-08T15:05:40.391Z,62.20
2022-11-08T15:08:20.053Z,62.30
2022-11-08T15:11:10.931Z,62.30
2022-11-08T15:13:44.845Z,62.30
2022-11-08T15:16:12.274Z,62.40
2022-11-08T15:18:41.176Z,62.40
2022-11-08T15:21:26.406Z,62.40
2022-11-08T15:23:54.482Z,62.40
2022-11-08T15:26:22.859Z,62.50
2022-11-08T15:29:19.859Z,62.50
2022-11-08T15:31:58.327Z,62.60
2022-11-08T15:34:37.181Z,62.60
2022-11-08T15:37:20.215Z,62.60
2022-11-08T15:39:49.789Z,62.60
2022-11-08T15:42:17.780Z,62.70
2022-11-08T15:45:03.192Z,62.70
2022-11-08T15:47:43.483Z,62.70
2022-11-08T15:50:15.303Z,62.70
2022-11-08T15:52:43.784Z,62.80
2022-11-08T15:55:16.704Z,62.80
2022-11-08T15:57:45.776Z,62.80
2022-11-08T16:00:22.261Z,62.90
2022-11-08T16:02:49.186Z,62.90
2022-11-08T16:05:18.920Z,62.90
2022-11-08T16:07:46.262Z,63.00
2022-11-08T16:10:14.418Z,63.00
2022-11-08T16:12:43.959Z,63.00
2022-11-08T16:15:16.995Z,63.00
2022-11-08T16:17:44.630Z,63.10
2022-11-08T16:20:18.442Z,63.10
2022-11-08T16:22:45.634Z,63.10
2022-11-08T16:25:12.329Z,62.70
2022-11-08T16:27:39.571Z,62.40
2022-11-08T16:30:15.007Z,62.30
2022-11-08T16:32:42.472Z,62.80
2022-11-08T16:35:12.645Z,63.00
2022-11-08T16:37:39.557Z,63.10
2022-11-08T16:40:18.934Z,63.10
2022-11-08T16:42:47.251Z,63.10
2022-11-08T16:45:14.999Z,63.10
2022-11-08T16:47:43.988Z,63.10
2022-11-08T16:50:24.394Z,63.10
2022-11-08T16:52:51.436Z,63.10
2022-11-08T16:55:19.932Z,63.10
2022-11-08T16:57:47.302Z,63.20
2022-11-08T17:00:18.010Z,63.20
2022-11-08T17:02:50.372Z,63.20
2022-11-08T17:05:18.777Z,63.20
2022-11-08T17:07:45.643Z,63.30
2022-11-08T17:10:16.843Z,63.20
2022-11-08T17:12:43.757Z,63.20
2022-11-08T17:15:13.353Z,63.30
2022-11-08T17:17:40.681Z,63.30
2022-11-08T17:20:10.224Z,63.30
2022-11-08T17:22:37.322Z,63.30
2022-11-08T17:25:04.316Z,63.40
2022-11-08T17:27:31.043Z,63.40
2022-11-08T17:29:57.997Z,63.40
2022-11-08T17:32:24.734Z,63.40
2022-11-08T17:34:51.581Z,63.40
2022-11-08T17:37:18.293Z,63.40
2022-11-08T17:39:45.052Z,63.40
2022-11-08T17:42:11.993Z,63.40
2022-11-08T17:44:38.931Z,63.40
2022-11-08T17:47:08.360Z,64.00
2022-11-08T17:49:37.657Z,63.40
2022-11-08T17:52:08.045Z,63.50
2022-11-08T17:54:34.774Z,63.50
2022-11-08T17:57:01.581Z,63.50
2022-11-08T17:59:28.511Z,63.50
2022-11-08T18:01:55.503Z,63.50
2022-11-08T18:04:22.300Z,63.50
2022-11-08T18:06:49.129Z,63.50
2022-11-08T18:09:15.929Z,63.50
2022-11-08T18:11:47.979Z,63.50
2022-11-08T18:14:24.192Z,63.60
2022-11-08T18:16:54.802Z,63.50
2022-11-08T18:19:21.981Z,63.60
2022-11-08T18:21:48.862Z,63.50
2022-11-08T18:24:16.334Z,63.60
2022-11-08T18:26:43.082Z,63.60
2022-11-08T18:29:09.823Z,63.60
2022-11-08T18:31:36.999Z,63.70
2022-11-08T18:34:04.175Z,63.70
2022-11-08T18:36:31.635Z,63.60
2022-11-08T18:39:02.661Z,63.60
2022-11-08T18:41:31.809Z,63.70
2022-11-08T18:44:00.397Z,63.70
2022-11-08T18:46:29.082Z,63.70
2022-11-08T18:48:55.939Z,63.70
2022-11-08T18:51:23.741Z,63.80
2022-11-08T18:53:52.474Z,63.80
2022-11-08T18:56:20.157Z,63.80
2022-11-08T18:58:47.359Z,63.80
2022-11-08T19:01:14.822Z,63.80
2022-11-08T19:03:41.740Z,63.90
2022-11-08T19:06:08.794Z,63.80
2022-11-08T19:08:36.823Z,63.80
2022-11-08T19:11:06.323Z,63.80
2022-11-08T19:13:34.928Z,63.80
2022-11-08T19:16:08.618Z,63.90
2022-11-08T19:18:36.507Z,63.90
2022-11-08T19:21:06.681Z,63.90
2022-11-08T19:23:34.416Z,63.90
2022-11-08T19:26:04.100Z,63.90
2022-11-08T19:28:39.550Z,64.00
2022-11-08T19:31:06.799Z,63.90
2022-11-08T19:33:34.614Z,64.00
2022-11-08T19:36:03.552Z,64.00
2022-11-08T19:38:35.761Z,64.00
2022-11-08T19:41:10.717Z,64.00
2022-11-08T19:43:39.138Z,64.00
2022-11-08T19:46:08.862Z,64.00
2022-11-08T19:48:38.604Z,64.00
2022-11-08T19:51:12.891Z,64.00
2022-11-08T19:53:42.734Z,64.00
2022-11-08T19:56:12.520Z,63.80
2022-11-08T19:58:39.446Z,63.90
2022-11-08T20:01:16.188Z,63.90
2022-11-08T20:03:43.339Z,63.90
2022-11-08T20:06:10.976Z,64.00
2022-11-08T20:08:37.887Z,63.90
2022-11-08T20:11:12.559Z,64.00
2022-11-08T20:13:39.570Z,64.00
2022-11-08T20:16:18.147Z,63.90
2022-11-08T20:18:45.445Z,64.00
2022-11-08T20:21:14.513Z,63.90
2022-11-08T20:23:45.223Z,63.90
2022-11-08T20:26:18.631Z,63.90
2022-11-08T20:28:55.808Z,63.90
2022-11-08T20:31:23.656Z,63.80
2022-11-08T20:33:53.133Z,63.90
2022-11-08T20:36:22.129Z,63.80
2022-11-08T20:38:49.564Z,63.80
2022-11-08T20:41:20.457Z,63.90
2022-11-08T20:43:47.268Z,63.90
2022-11-08T20:46:19.067Z,63.90
2022-11-08T20:48:50.599Z,63.80
2022-11-08T20:51:19.161Z,63.70
2022-11-08T20:53:46.414Z,63.70
2022-11-08T20:56:18.821Z,64.30
2022-11-08T20:58:46.998Z,63.80
2022-11-08T21:01:14.884Z,63.70
2022-11-08T21:03:42.632Z,63.70
2022-11-08T21:06:11.764Z,63.80
2022-11-08T21:11:25.653Z,63.70
2022-11-08T21:13:52.594Z,63.70
2022-11-08T21:16:31.027Z,63.70
2022-11-08T21:19:00.718Z,63.70
2022-11-08T21:21:27.599Z,63.80
2022-11-08T21:23:54.654Z,63.70
2022-11-08T21:26:22.727Z,63.70
2022-11-08T21:28:49.553Z,63.70
2022-11-08T21:31:16.581Z,63.70
2022-11-08T21:33:43.684Z,63.70
2022-11-08T21:36:11.200Z,63.70
2022-11-08T21:38:39.480Z,63.70
2022-11-08T21:41:09.611Z,63.70
2022-11-08T21:43:45.264Z,63.60
2022-11-08T21:46:26.011Z,63.60
2022-11-08T21:48:57.834Z,63.60
2022-11-08T21:51:25.519Z,63.60
2022-11-08T21:53:56.714Z,63.60
2022-11-08T21:56:25.323Z,63.60
2022-11-08T21:58:52.969Z,63.60
2022-11-08T22:01:21.526Z,63.60
2022-11-08T22:03:51.019Z,63.60
2022-11-08T22:06:21.523Z,63.60
2022-11-08T22:08:48.922Z,63.60
2022-11-08T22:11:16.136Z,64.10
2022-11-08T22:13:43.386Z,63.50
2022-11-08T22:16:10.160Z,63.60
2022-11-08T22:18:58.696Z,63.60
2022-11-08T22:21:41.022Z,63.50
2022-11-08T22:24:14.887Z,63.60
2022-11-08T22:26:42.059Z,63.50
2022-11-08T22:29:09.863Z,63.50
2022-11-08T22:31:37.473Z,63.50
2022-11-08T22:34:05.537Z,63.50
2022-11-08T22:36:32.179Z,63.60
2022-11-08T22:38:59.036Z,63.60
2022-11-08T22:41:26.311Z,63.60
2022-11-08T22:43:53.377Z,63.50
2022-11-08T22:46:20.770Z,63.60
2022-11-08T22:48:47.680Z,63.60
2022-11-08T22:51:14.768Z,63.50
2022-11-08T22:53:41.887Z,63.50
2022-11-08T22:56:11.461Z,63.50
2022-11-08T22:58:39.291Z,63.50
2022-11-08T23:01:07.283Z,63.50
2022-11-08T23:03:34.043Z,63.40
2022-11-08T23:06:00.799Z,63.50
2022-11-08T23:08:28.070Z,63.40
2022-11-08T23:11:15.118Z,63.40
2022-11-08T23:14:00.029Z,63.40
2022-11-08T23:16:33.616Z,63.40
2022-11-08T23:19:26.871Z,63.50
2022-11-08T23:22:13.254Z,63.40
2022-11-08T23:24:42.235Z,64.10
2022-11-08T23:27:28.922Z,63.50
2022-11-08T23:30:14.868Z,63.40
2022-11-08T23:32:47.379Z,63.40
2022-11-08T23:35:15.035Z,63.50
2022-11-08T23:37:42.321Z,63.40
2022-11-08T23:40:29.170Z,63.50
2022-11-08T23:43:34.975Z,63.40
2022-11-08T23:46:11.195Z,63.40
2022-11-08T23:48:39.555Z,63.40
2022-11-08T23:51:07.469Z,63.40
2022-11-08T23:53:36.978Z,63.40
2022-11-08T23:56:04.863Z,63.40
2022-11-08T23:58:32.206Z,63.40
